createdAt,value
2022-09-30T02:52:55.930Z,7.22
2022-09-30T04:17:37.282Z,7.88
2022-09-30T04:18:42.614Z,9.98
2022-09-30T04:19:47.268Z,9.93
2022-09-30T04:20:53.816Z,9.15
2022-09-30T04:21:58.773Z,9.20
2022-09-30T04:23:04.355Z,7.13
2022-09-30T04:24:09.591Z,9.10
2022-09-30T04:25:14.637Z,9.48
2022-09-30T04:26:42.994Z,7.25
2022-09-30T04:27:58.286Z,8.30
2022-09-30T04:29:06.038Z,7.68
2022-09-30T04:30:15.586Z,9.90
2022-09-30T04:31:24.023Z,9.02
2022-09-30T04:32:32.887Z,12.10
2022-09-30T04:33:41.318Z,10.02
2022-09-30T04:34:51.236Z,8.90
2022-09-30T04:37:45.334Z,10.27
2022-09-30T04:39:01.394Z,9.70
2022-09-30T04:40:08.362Z,10.43
2022-09-30T04:43:56.952Z,8.23
2022-09-30T04:45:05.629Z,9.32
2022-09-30T04:48:54.029Z,8.40
2022-09-30T05:29:54.416Z,7.97
2022-09-30T05:32:58.228Z,8.15
2022-09-30T10:50:52.205Z,5.18
2022-09-30T10:52:08.840Z,7.50
2022-09-30T10:53:50.326Z,8.23
2022-09-30T10:55:00.865Z,5.97
2022-09-30T10:56:09.167Z,7.88
2022-09-30T10:57:44.313Z,9.57
2022-09-30T10:59:07.731Z,7.60
2022-09-30T11:00:25.492Z,8.50
2022-09-30T11:01:58.187Z,7.72
2022-09-30T11:03:18.091Z,6.13
2022-09-30T11:04:42.929Z,5.50
2022-09-30T11:05:57.333Z,5.57
2022-09-30T11:09:23.113Z,3.70
2022-09-30T11:11:10.997Z,4.35
2022-09-30T11:13:11.181Z,5.10
2022-09-30T11:14:40.262Z,7.68
2022-09-30T11:16:08.669Z,7.45
2022-09-30T11:17:33.141Z,7.85
2022-09-30T11:19:08.549Z,6.90
2022-09-30T11:20:50.770Z,4.90
2022-09-30T11:22:22.250Z,6.15
2022-09-30T11:24:03.819Z,7.10
2022-09-30T11:25:44.401Z,6.38
2022-09-30T11:27:17.146Z,6.47
2022-09-30T11:28:50.868Z,5.47
2022-09-30T11:30:21.065Z,6.80
2022-09-30T11:31:43.243Z,5.32
2022-09-30T11:33:13.081Z,8.43
2022-09-30T11:34:49.827Z,7.38
2022-09-30T11:36:42.872Z,3.53
2022-09-30T11:38:07.213Z,4.22
2022-09-30T11:39:33.563Z,3.35
2022-09-30T11:40:48.519Z,3.20
2022-09-30T11:42:08.369Z,5.47
2022-09-30T11:43:42.037Z,5.65
2022-09-30T11:45:09.529Z,5.35
2022-09-30T11:47:09.809Z,4.88
2022-09-30T11:48:32.782Z,2.80
2022-09-30T11:50:34.065Z,4.35
2022-09-30T11:52:09.479Z,3.63
2022-09-30T11:53:25.104Z,2.88
2022-09-30T11:54:45.102Z,4.20
2022-09-30T11:56:06.267Z,4.15
2022-09-30T11:57:51.616Z,3.83
2022-09-30T11:59:18.513Z,5.43
2022-09-30T12:00:24.085Z,4.38
2022-09-30T12:01:52.080Z,4.88
2022-09-30T12:03:11.274Z,3.95
2022-09-30T12:04:33.174Z,3.95
2022-09-30T12:05:59.054Z,4.00
2022-09-30T12:07:27.131Z,2.75
2022-09-30T12:08:51.493Z,4.60
2022-09-30T12:10:09.714Z,4.18
2022-09-30T12:11:54.970Z,4.03
2022-09-30T12:13:30.900Z,4.80
2022-09-30T12:14:50.247Z,4.30
2022-09-30T12:16:00.468Z,3.53
2022-09-30T12:17:22.162Z,4.68
2022-09-30T12:18:35.685Z,4.57
2022-09-30T12:19:56.488Z,7.55
2022-09-30T12:21:21.570Z,4.80
2022-09-30T12:22:40.809Z,2.85
2022-09-30T12:23:55.570Z,4.80
2022-09-30T12:25:33.664Z,3.40
2022-09-30T12:26:41.291Z,3.13
2022-09-30T12:30:23.670Z,4.95
2022-09-30T12:32:04.538Z,3.72
2022-09-30T12:33:27.247Z,4.07
2022-09-30T12:35:16.433Z,3.72
2022-09-30T12:37:10.295Z,4.78
2022-09-30T12:38:51.888Z,3.72
2022-09-30T12:40:52.806Z,4.45
2022-09-30T12:42:29.310Z,2.53
2022-09-30T12:44:04.209Z,4.30
2022-09-30T12:45:40.196Z,3.83
2022-09-30T12:47:03.805Z,9.35
2022-09-30T12:48:19.103Z,3.30
2022-09-30T12:49:30.507Z,3.97
2022-09-30T12:50:53.391Z,2.63
2022-09-30T12:52:08.153Z,10.18
2022-09-30T12:53:38.512Z,3.50
2022-09-30T12:55:10.537Z,3.25
2022-09-30T12:56:16.803Z,3.88
2022-09-30T12:57:28.800Z,2.45
2022-09-30T12:58:58.200Z,2.55
2022-09-30T13:00:19.560Z,3.30
2022-09-30T13:01:33.589Z,2.92
2022-09-30T13:02:48.160Z,2.63
2022-09-30T13:04:01.224Z,2.67
2022-09-30T13:05:32.878Z,5.70
2022-09-30T13:06:46.975Z,5.68
2022-09-30T13:08:05.970Z,3.30
2022-09-30T13:09:31.536Z,2.42
2022-09-30T13:11:54.000Z,2.78
2022-09-30T13:13:32.472Z,2.88
2022-09-30T13:14:48.955Z,2.67
2022-09-30T13:16:10.970Z,3.38
2022-09-30T13:17:37.785Z,3.70
2022-09-30T13:18:51.339Z,2.13
2022-09-30T13:20:00.591Z,2.92
2022-09-30T13:21:19.950Z,1.48
2022-09-30T13:22:34.527Z,2.65
2022-09-30T13:24:02.151Z,2.08
2022-09-30T13:25:19.503Z,3.13
2022-09-30T13:26:41.184Z,2.55
2022-09-30T13:28:11.028Z,3.72
2022-09-30T13:29:16.513Z,1.75
2022-09-30T13:30:24.705Z,2.72
2022-09-30T13:31:53.794Z,4.80
2022-09-30T13:33:00.150Z,4.18
2022-09-30T13:34:11.956Z,3.40
2022-09-30T13:35:55.254Z,2.20
2022-09-30T13:37:06.245Z,2.42
2022-09-30T13:38:14.318Z,4.32
2022-09-30T13:39:31.956Z,2.10
2022-09-30T13:41:00.839Z,2.15
2022-09-30T13:42:39.037Z,2.22
2022-09-30T13:44:07.832Z,4.20
2022-09-30T13:45:43.488Z,2.42
2022-09-30T13:47:01.252Z,12.57
2022-09-30T13:48:33.759Z,2.30
2022-09-30T13:50:17.062Z,3.88
2022-09-30T13:51:26.584Z,2.50
2022-09-30T13:52:35.806Z,2.85
2022-09-30T13:53:53.033Z,3.90
2022-09-30T13:55:07.390Z,1.95
2022-09-30T13:56:34.388Z,1.67
2022-09-30T13:58:03.863Z,1.67
2022-09-30T13:59:16.632Z,1.50
2022-09-30T14:00:25.356Z,2.03
2022-09-30T14:01:45.776Z,2.22
2022-09-30T14:03:27.839Z,1.65
2022-09-30T14:04:48.980Z,1.45
2022-09-30T14:06:38.570Z,1.88
2022-09-30T14:07:54.787Z,2.08
2022-09-30T14:09:39.052Z,1.42
2022-09-30T14:11:17.265Z,3.10
2022-09-30T14:13:03.083Z,1.77
2022-09-30T14:14:59.299Z,1.63
2022-09-30T14:16:41.705Z,1.65
2022-09-30T14:18:23.261Z,4.45
2022-09-30T14:20:05.722Z,2.28
2022-09-30T14:21:35.503Z,5.43
2022-09-30T14:40:42.093Z,2.92
2022-09-30T14:42:30.319Z,2.20
2022-09-30T14:43:47.468Z,2.53
2022-09-30T14:44:57.569Z,2.67
2022-09-30T14:46:36.530Z,1.48
2022-09-30T14:47:51.935Z,1.83
2022-09-30T14:49:11.105Z,2.83
2022-09-30T14:50:40.051Z,2.20
2022-09-30T14:51:59.996Z,1.65
2022-09-30T16:40:31.051Z,2.20
2022-09-30T16:41:47.344Z,2.70
2022-09-30T16:43:07.914Z,3.42
2022-09-30T16:44:19.568Z,2.40
2022-09-30T16:45:31.655Z,3.00
2022-09-30T16:46:54.672Z,2.10
2022-09-30T16:49:57.655Z,3.85
2022-09-30T16:51:25.170Z,2.42
2022-09-30T16:52:32.603Z,3.30
2022-09-30T16:54:00.900Z,3.80
2022-09-30T16:55:10.893Z,2.55
2022-09-30T16:56:26.449Z,4.88
2022-09-30T16:57:53.605Z,10.55
2022-09-30T16:59:18.697Z,2.20
2022-09-30T17:00:31.857Z,2.05
2022-09-30T17:04:49.903Z,2.92
2022-09-30T17:05:55.777Z,2.85
2022-09-30T17:07:05.459Z,1.52
2022-09-30T17:08:16.632Z,2.97
2022-09-30T17:09:27.249Z,2.25
2022-09-30T17:11:56.294Z,2.95
2022-09-30T17:13:05.586Z,4.03
2022-09-30T17:14:21.569Z,9.50
2022-09-30T17:16:05.180Z,2.05
2022-09-30T17:17:25.589Z,6.22
2022-09-30T17:18:35.971Z,2.53
2022-09-30T17:19:47.727Z,2.22
2022-09-30T17:24:05.560Z,3.85
2022-09-30T17:26:13.845Z,6.00
2022-09-30T17:27:20.922Z,3.03
2022-09-30T17:28:30.762Z,3.97
2022-09-30T17:29:45.324Z,2.00
2022-09-30T17:30:56.142Z,3.63
2022-09-30T17:32:11.637Z,4.10
2022-09-30T17:33:20.387Z,2.88
2022-09-30T17:34:29.490Z,2.60
2022-09-30T17:35:44.129Z,5.53
2022-09-30T17:37:01.085Z,3.83
2022-09-30T17:38:16.870Z,2.60
2022-09-30T17:39:58.340Z,4.28
2022-09-30T17:41:46.275Z,2.63
2022-09-30T17:43:10.310Z,4.80
2022-09-30T17:46:24.014Z,3.25
2022-09-30T17:49:23.351Z,3.63
2022-09-30T17:50:33.576Z,4.10
2022-09-30T17:51:54.604Z,4.30
2022-09-30T17:53:19.582Z,5.13
2022-09-30T17:54:51.805Z,5.45
2022-09-30T17:56:31.810Z,4.35
2022-09-30T17:57:40.612Z,3.33
2022-09-30T17:59:09.910Z,3.83
2022-09-30T18:01:42.469Z,5.38
2022-09-30T18:05:22.114Z,4.93
2022-09-30T18:06:53.228Z,5.43
2022-09-30T18:07:59.291Z,2.75
2022-09-30T18:09:14.979Z,3.90
2022-09-30T20:07:00.482Z,2.78
2022-09-30T20:11:39.831Z,6.18
2022-09-30T20:15:00.781Z,3.10
2022-09-30T20:16:28.740Z,7.15
2022-09-30T20:17:45.298Z,6.75
2022-09-30T20:18:52.109Z,6.72
2022-09-30T20:20:54.642Z,4.75
2022-09-30T20:22:10.035Z,4.50
2022-09-30T20:25:02.813Z,5.72
2022-09-30T20:26:18.096Z,5.55
2022-09-30T20:28:01.925Z,5.10
2022-09-30T20:29:32.562Z,4.20
2022-09-30T20:30:57.445Z,3.80
2022-09-30T20:32:04.226Z,3.45
2022-09-30T20:33:25.112Z,3.35
2022-09-30T20:34:49.430Z,4.18
2022-09-30T20:35:57.353Z,3.83
2022-09-30T20:37:17.100Z,5.80
2022-09-30T20:38:32.271Z,5.15
2022-09-30T20:39:41.517Z,6.53
2022-09-30T20:40:52.850Z,11.00
2022-09-30T20:42:05.697Z,8.50
2022-09-30T20:45:02.045Z,8.25
2022-09-30T20:46:08.629Z,7.30
2022-09-30T20:47:20.247Z,7.70
2022-09-30T20:48:33.609Z,11.60
2022-09-30T20:49:44.111Z,12.05
2022-09-30T20:51:34.512Z,14.10
2022-09-30T20:53:07.925Z,6.20
2022-09-30T20:55:45.413Z,9.90
2022-09-30T20:59:10.696Z,8.82
2022-09-30T21:00:20.936Z,9.32
2022-09-30T21:02:00.188Z,10.85
2022-09-30T21:06:14.360Z,9.32
2022-09-30T21:07:19.353Z,8.70
2022-09-30T21:08:28.732Z,10.02
2022-09-30T21:09:48.890Z,9.90
2022-09-30T21:11:40.884Z,10.05
2022-09-30T21:12:45.428Z,9.20
2022-09-30T21:13:53.272Z,9.85
2022-09-30T21:15:13.734Z,10.38
2022-09-30T21:16:31.401Z,7.57
2022-09-30T21:17:45.145Z,11.10
2022-09-30T21:19:22.408Z,11.35
2022-09-30T21:20:40.059Z,7.93
2022-09-30T21:21:57.140Z,9.68
2022-09-30T21:23:54.640Z,10.55
2022-09-30T21:25:00.100Z,6.68
2022-09-30T21:26:14.383Z,12.65
2022-09-30T21:27:20.440Z,13.60
2022-09-30T21:28:26.183Z,10.07
2022-09-30T21:32:30.161Z,13.30
2022-09-30T21:34:30.692Z,12.35
2022-09-30T21:36:07.530Z,10.65
2022-09-30T21:37:21.810Z,17.77
2022-09-30T21:38:42.691Z,8.48
2022-09-30T21:39:48.664Z,13.52
2022-09-30T21:41:46.217Z,9.55
2022-09-30T21:43:31.873Z,10.90
2022-09-30T21:44:38.663Z,9.50
2022-09-30T21:45:47.294Z,13.88
2022-09-30T21:47:00.992Z,11.55
2022-09-30T21:48:13.037Z,6.65
2022-09-30T21:49:29.032Z,9.90
2022-09-30T21:50:40.318Z,15.90
2022-09-30T21:52:12.294Z,9.50
2022-09-30T21:53:17.507Z,8.70
2022-09-30T21:54:23.850Z,10.93
2022-09-30T21:55:29.201Z,8.98
2022-09-30T21:56:46.714Z,13.45
2022-09-30T21:57:55.433Z,9.40
2022-09-30T21:59:01.787Z,8.93
2022-09-30T22:00:20.247Z,9.48
2022-09-30T22:01:26.052Z,9.13
2022-09-30T22:02:36.171Z,9.55
2022-09-30T22:03:55.058Z,8.07
2022-09-30T22:05:02.761Z,8.65
2022-09-30T22:08:03.480Z,8.93
2022-09-30T22:09:19.473Z,9.95
2022-09-30T22:12:29.334Z,10.18
2022-09-30T22:14:18.233Z,10.77
2022-09-30T22:15:40.912Z,14.52
2022-09-30T22:19:18.437Z,7.82
2022-09-30T22:20:30.589Z,12.63
2022-09-30T22:21:58.709Z,10.18
2022-09-30T22:23:12.808Z,10.75
2022-09-30T22:25:57.952Z,8.98
2022-09-30T22:27:04.146Z,15.38
2022-09-30T22:28:26.811Z,7.95
2022-09-30T22:29:36.187Z,7.78
2022-09-30T22:30:43.183Z,13.68
2022-09-30T22:32:04.524Z,9.80
2022-09-30T22:33:43.603Z,9.05
2022-09-30T22:35:06.202Z,9.98
2022-09-30T22:36:31.956Z,11.23
2022-09-30T22:37:55.248Z,15.48
2022-09-30T22:40:21.949Z,12.65
2022-09-30T22:41:44.632Z,7.57
2022-09-30T22:43:09.801Z,11.57
2022-09-30T22:44:26.283Z,10.18
2022-09-30T22:45:31.927Z,11.50
2022-09-30T22:48:09.605Z,10.00
2022-09-30T22:49:18.629Z,15.07
2022-09-30T22:50:29.685Z,11.07
2022-09-30T22:51:58.787Z,13.38
2022-09-30T22:53:19.068Z,10.02
2022-09-30T22:54:29.010Z,11.30
2022-09-30T22:56:09.143Z,9.20
2022-09-30T22:57:14.502Z,9.52
2022-09-30T22:58:26.250Z,11.13
2022-09-30T22:59:38.767Z,13.95
2022-09-30T23:01:37.345Z,13.88
2022-09-30T23:03:00.284Z,10.75
2022-09-30T23:52:13.101Z,11.65
2022-09-30T23:53:21.752Z,7.57
2022-09-30T23:56:21.556Z,9.07
2022-09-30T23:57:28.468Z,8.48
2022-09-30T23:58:37.987Z,11.23
2022-09-30T23:59:43.436Z,13.20
